MicroStrategy Price to Sales Ratio 2010-2023 | MSTR

Historical PS ratio values for MicroStrategy (MSTR) over the last 10 years. The current P/S ratio for MicroStrategy as of April 10, 2024 is . For more information on how our historical price data is adjusted see the Stock Price Adjustment Guide.
MicroStrategy P/S Ratio Historical Data
Date Stock Price TTM Sales per Share Price to Sales Ratio
2024-04-11 1551.81 47.80
2023-12-31 631.62 $32.46 19.46
2023-09-30 328.28 $36.66 8.96
2023-06-30 342.42 $38.64 8.86
2023-03-31 292.32 $41.96 6.97
2022-12-31 141.57 $44.16 3.21
2022-09-30 212.26 $45.88 4.63
2022-06-30 164.30 $47.59 3.45
2022-03-31 486.32 $49.65 9.79
2021-12-31 544.49 $51.83 10.51
2021-09-30 578.40 $51.96 11.13
2021-06-30 664.50 $52.41 12.68
2021-03-31 678.80 $50.90 13.34
2020-12-31 388.55 $49.27 7.89
2020-09-30 150.56 $48.64 3.10
2020-06-30 118.29 $47.00 2.52
2020-03-31 118.10 $47.07 2.51
2019-12-31 142.63 $47.13 3.03
2019-09-30 148.37 $45.76 3.24
2019-06-30 143.31 $44.74 3.20
2019-03-31 144.25 $43.81 3.29
2018-12-31 127.75 $43.34 2.95
2018-09-30 140.62 $43.60 3.23
2018-06-30 127.75 $43.97 2.91
2018-03-31 128.99 $43.76 2.95
2017-12-31 131.30 $43.60 3.01
2017-09-30 127.71 $44.08 2.90
2017-06-30 191.67 $44.39 4.32
2017-03-31 187.80 $44.80 4.19
2016-12-31 197.40 $44.62 4.42
2016-09-30 167.44 $44.77 3.74
2016-06-30 175.02 $44.67 3.92
2016-03-31 179.72 $45.53 3.95
2015-12-31 179.29 $45.98 3.90
2015-09-30 196.47 $46.65 4.21
2015-06-30 170.08 $48.85 3.48
2015-03-31 169.19 $49.85 3.39
2014-12-31 162.40 $51.24 3.17
2014-09-30 130.84 $52.81 2.48
2014-06-30 140.62 $51.99 2.70
2014-03-31 115.39 $51.64 2.23
2013-12-31 124.24 $50.97 2.44
2013-09-30 103.76 $50.25 2.07
2013-06-30 86.96 $49.84 1.74
2013-03-31 101.08 $49.81 2.03
2012-12-31 93.38 $50.75 1.84
2012-09-30 134.07 $49.02 2.74
2012-06-30 129.86 $49.66 2.61
2012-03-31 140.00 $49.98 2.80
2011-12-31 108.32 $49.32 2.20
2011-09-30 114.07 $46.96 2.43
2011-06-30 162.68 $43.10 3.77
2010-12-31 85.47 $38.21 2.24
2010-09-30 86.61 $35.01 2.47
2010-06-30 75.09 $36.19 2.07
2010-03-31 85.07 $35.70 2.38
2009-12-31 94.02 $35.27 2.67
2011-03-31 134.48 $33.22 4.05
Sector Industry Market Cap Revenue
Computer and Technology Computer Software $26.572B $0.496B
MicroStrategy Incorporated, a leading worldwide provider of business intelligence software, today announced that GT Nexus has selected MicroStrategy to power the customer-facing analytics and reporting capabilities on its Global Logistics portal. The GT Nexus portal is an on demand technology platform that is used by importers, exporters, transportation carriers, suppliers, banks, and other partners to manage goods that are moving around the world. The GT Nexus system captures and stores hard-to-get data associated with global supply chains, and then fuels a range of Web applications that can be used by constituents to lower supply chain costs and improve control. MicroStrategy will help GT Nexus to deliver a wide range of analytics and reporting capabilities to its customers, which include Home Depot, Kmart, Xerox, Weyerhaeuser, and American Eagle Outfitters.
Stock Name Country Market Cap PE Ratio
Microsoft (MSFT) United States $3145.007B 38.27
Oracle (ORCL) United States $334.630B 27.24
Salesforce (CRM) United States $290.631B 48.48
Adobe (ADBE) United States $218.275B 36.50
Intuit (INTU) United States $175.941B 59.00
Synopsys (SNPS) United States $85.588B 61.74
Cadence Design Systems (CDNS) United States $82.921B 75.58
Dassault Systemes SA (DASTY) France $56.910B 37.34
Autodesk (ADSK) United States $51.124B 50.32
ANSYS (ANSS) United States $29.542B 50.00
PTC (PTC) United States $21.749B 64.06
SS&C Technologies Holdings (SSNC) United States $15.275B 15.04
Manhattan Associates (MANH) United States $14.671B 84.50
Open Text (OTEX) Canada $9.853B 10.57
Descartes Systems Group (DSGX) Canada $7.569B 66.37
Trend Micro (TMICY) Japan $7.188B 63.78
Pegasystems (PEGA) United States $5.203B 71.28
CommVault Systems (CVLT) United States $4.226B 75.41
Blackbaud (BLKB) United States $3.897B 34.87
ACI Worldwide (ACIW) United States $3.518B 18.07
Progress Software (PRGS) United States $2.237B 14.01
Verint Systems (VRNT) United States $1.966B 18.15
BlackBerry (BB) Canada $1.827B 0.00
Sapiens (SPNS) Israel $1.713B 24.27
PROS Holdings (PRO) United States $1.702B 0.00
Simulations Plus (SLP) United States $0.956B 70.37
Magic Software Enterprises (MGIC) Israel $0.584B 12.01
Rand Worldwide (RWWI) United States $0.571B 0.00
American Software (AMSWA) United States $0.401B 33.50
Canaan (CAN) China $0.301B 0.00
Rigetti Computing (RGTI) United States $0.200B 0.00
OptimizeRx (OPRX) United States $0.199B 0.00
Icad Inc (ICAD) United States $0.045B 0.00
NetSol Technologies (NTWK) United States $0.031B 0.00
Smith Micro Software (SMSI) United States $0.023B 0.00
Neonode (NEON) Sweden $0.022B 0.00
Wetouch Technology (WETH) $0.018B 0.00
Hanryu Holdings (HRYU) South Korea $0.017B 0.00
GSE Systems (GVP) United States $0.010B 0.00
SAP SE (SAP) Germany $0.000B 48.61